createdAt,value
2019-01-26T00:00:03.070Z,93.1
2019-01-26T00:01:03.727Z,92.8
2019-01-26T00:02:03.411Z,93.8
2019-01-26T00:03:02.808Z,93.8
2019-01-26T00:04:03.108Z,93.5
2019-01-26T00:05:03.336Z,93.3
2019-01-26T00:06:03.683Z,93.3
2019-01-26T00:07:03.776Z,92.8
2019-01-26T00:08:02.924Z,92.8
2019-01-26T00:09:03.257Z,95.6
2019-01-26T00:10:03.573Z,95.6
2019-01-26T00:11:03.432Z,98
2019-01-26T00:12:03.097Z,98
2019-01-26T00:13:03.240Z,99.1
2019-01-26T00:14:02.980Z,93.1
2019-01-26T00:15:03.113Z,93.1
2019-01-26T00:16:02.824Z,92.6
2019-01-26T00:17:02.969Z,93.8
2019-01-26T00:18:03.378Z,93.5
2019-01-26T00:19:03.403Z,92.6
2019-01-26T00:20:02.768Z,92.8
2019-01-26T00:21:03.235Z,90
2019-01-26T00:22:02.793Z,87.7
2019-01-26T00:23:03.490Z,88.2
2019-01-26T00:24:03.666Z,88.2
2019-01-26T00:25:03.422Z,87.5
2019-01-26T00:26:03.582Z,87.9
2019-01-26T00:27:03.639Z,87.2
2019-01-26T00:28:02.817Z,86.8
2019-01-26T00:29:02.914Z,87.7
2019-01-26T00:30:03.348Z,87.2
2019-01-26T00:31:03.281Z,88.9
2019-01-26T00:32:03.370Z,90.3
2019-01-26T00:33:03.267Z,90.3
2019-01-26T00:34:03.200Z,90.7
2019-01-26T00:35:03.315Z,91.7
2019-01-26T00:36:02.744Z,91.2
2019-01-26T00:37:02.221Z,90.7
2019-01-26T00:38:03.439Z,91.4
2019-01-26T00:39:03.483Z,90.7
2019-01-26T00:40:03.442Z,89.3
2019-01-26T00:41:03.595Z,89.3
2019-01-26T00:42:03.724Z,89.6
2019-01-26T00:43:03.644Z,88.6
2019-01-26T00:44:03.264Z,88.6
2019-01-26T00:45:03.673Z,88.6
2019-01-26T00:46:02.958Z,90
2019-01-26T00:47:03.117Z,90.7
2019-01-26T00:48:03.428Z,90.7
2019-01-26T00:49:03.659Z,90.7
2019-01-26T00:50:03.496Z,90.5
2019-01-26T00:51:03.239Z,90.5
2019-01-26T00:52:03.049Z,91
2019-01-26T00:53:03.260Z,91
2019-01-26T00:54:03.339Z,89.8
2019-01-26T00:55:03.052Z,89.8
2019-01-26T00:56:02.963Z,89.1
2019-01-26T00:57:03.136Z,87.7
2019-01-26T00:58:02.721Z,87.7
2019-01-26T00:59:03.797Z,87.2
2019-01-26T01:00:03.567Z,88.2
2019-01-26T01:01:03.097Z,88.2
2019-01-26T01:02:03.445Z,87.9
2019-01-26T01:03:03.492Z,88.4
2019-01-26T01:04:03.058Z,87.9
2019-01-26T01:05:03.091Z,87.9
2019-01-26T01:06:03.368Z,87.2
2019-01-26T01:07:03.495Z,87
2019-01-26T01:08:03.654Z,87
2019-01-26T01:09:02.859Z,87
2019-01-26T01:10:03.328Z,83.5
2019-01-26T01:11:03.523Z,84
2019-01-26T01:12:03.015Z,86.3
2019-01-26T01:13:03.068Z,87.7
2019-01-26T01:14:03.685Z,88.2
2019-01-26T01:15:03.761Z,88.2
2019-01-26T01:16:02.993Z,90
2019-01-26T01:17:03.561Z,90
2019-01-26T01:18:03.168Z,87.5
2019-01-26T01:19:03.394Z,87.5
2019-01-26T01:20:03.971Z,87.5
2019-01-26T01:21:03.175Z,88.6
2019-01-26T01:22:03.135Z,88.9
2019-01-26T01:23:03.616Z,87.7
2019-01-26T01:24:01.946Z,87.5
2019-01-26T01:25:02.799Z,87.2
2019-01-26T01:26:04.336Z,87.2
2019-01-26T01:27:03.559Z,86.8
2019-01-26T01:28:03.229Z,86.8
2019-01-26T01:29:02.975Z,84.7
2019-01-26T01:30:03.455Z,85.4
2019-01-26T01:31:03.736Z,85.6
2019-01-26T01:32:03.184Z,85.6
2019-01-26T01:33:03.552Z,86.1
2019-01-26T01:34:03.255Z,86.8
2019-01-26T01:35:03.462Z,86.8
2019-01-26T01:36:03.712Z,89.6
2019-01-26T01:37:03.308Z,90.5
2019-01-26T01:38:03.552Z,90.5
2019-01-26T01:39:03.649Z,90
2019-01-26T01:40:03.928Z,91.7
2019-01-26T01:41:03.463Z,91.7
2019-01-26T01:42:03.582Z,92.6
2019-01-26T01:43:03.161Z,93.8
2019-01-26T01:44:03.541Z,92.6
2019-01-26T01:45:02.262Z,93.1
2019-01-26T01:46:02.112Z,93.8
2019-01-26T01:47:02.350Z,93.5
2019-01-26T01:48:03.472Z,94.5
2019-01-26T01:49:03.126Z,94.5
2019-01-26T01:50:03.480Z,94.5
2019-01-26T01:51:03.510Z,94
2019-01-26T01:52:03.586Z,95.6
2019-01-26T01:53:03.443Z,94.5
2019-01-26T01:54:03.022Z,94.5
2019-01-26T01:55:03.070Z,94.5
2019-01-26T01:56:03.142Z,94.5
2019-01-26T01:57:02.954Z,93.8
2019-01-26T01:58:03.650Z,93.3
2019-01-26T01:59:03.514Z,93.1
2019-01-26T02:00:03.654Z,93.1
2019-01-26T02:01:03.405Z,89.6
2019-01-26T02:02:02.992Z,89.6
2019-01-26T02:03:03.744Z,88.4
2019-01-26T02:04:03.265Z,90
2019-01-26T02:05:03.817Z,88.6
2019-01-26T02:06:02.577Z,88.2
2019-01-26T02:07:03.273Z,87.9
2019-01-26T02:08:03.881Z,87.9
2019-01-26T02:09:03.437Z,87.5
2019-01-26T02:10:03.662Z,87.2
2019-01-26T02:11:03.326Z,87.2
2019-01-26T02:12:03.639Z,86.8
2019-01-26T02:13:02.973Z,87
2019-01-26T02:14:02.870Z,86.5
2019-01-26T02:15:03.100Z,85.8
2019-01-26T02:16:02.816Z,85.4
2019-01-26T02:17:03.564Z,86.1
2019-01-26T02:18:03.007Z,86.1
2019-01-26T02:19:03.328Z,86.8
2019-01-26T02:20:03.685Z,84.7
2019-01-26T02:21:03.524Z,84.7
2019-01-26T02:22:03.097Z,84.9
2019-01-26T02:23:03.619Z,85.1
2019-01-26T02:24:03.304Z,84.7
2019-01-26T02:25:03.359Z,84.9
2019-01-26T02:26:03.209Z,86.3
2019-01-26T02:27:03.173Z,86.5
2019-01-26T02:28:01.919Z,87.2
2019-01-26T02:29:03.789Z,87.2
2019-01-26T02:30:03.646Z,88.6
2019-01-26T02:31:03.263Z,87.7
2019-01-26T02:32:03.320Z,85.8
2019-01-26T02:33:03.897Z,85.4
2019-01-26T02:34:03.445Z,85.8
2019-01-26T02:35:03.483Z,84.7
2019-01-26T02:36:03.568Z,83.3
2019-01-26T02:37:03.094Z,83.3
2019-01-26T02:38:03.668Z,83
2019-01-26T02:39:03.344Z,83.7
2019-01-26T02:40:03.476Z,82.6
2019-01-26T02:41:03.258Z,83
2019-01-26T02:42:02.935Z,83
2019-01-26T02:43:03.566Z,84.4
2019-01-26T02:44:03.610Z,85.4
2019-01-26T02:45:03.259Z,85.4
2019-01-26T02:46:04.256Z,84
2019-01-26T02:47:03.327Z,83.3
2019-01-26T02:48:03.291Z,79.5
2019-01-26T02:49:02.967Z,80.2
2019-01-26T02:50:03.338Z,80.2
2019-01-26T02:51:02.023Z,81.4
2019-01-26T02:52:03.262Z,79.8
2019-01-26T02:53:03.465Z,80.9
2019-01-26T02:54:03.117Z,81.9
2019-01-26T02:55:03.026Z,82.3
2019-01-26T02:56:03.762Z,82.3
2019-01-26T02:57:02.742Z,82.6
2019-01-26T02:58:03.078Z,81.9
2019-01-26T02:59:03.464Z,81.9
2019-01-26T03:00:03.539Z,82.3
2019-01-26T03:01:02.889Z,82.3
2019-01-26T03:02:02.949Z,81.2
2019-01-26T03:03:03.690Z,81.2
2019-01-26T03:04:03.527Z,83.7
2019-01-26T03:05:03.199Z,79.5
2019-01-26T03:06:02.937Z,82.3
2019-01-26T03:07:03.192Z,83.7
2019-01-26T03:08:03.406Z,84
2019-01-26T03:09:03.053Z,84
2019-01-26T03:10:03.356Z,85.6
2019-01-26T03:11:02.864Z,84.7
2019-01-26T03:12:03.619Z,81.6
2019-01-26T03:13:03.330Z,81.6
2019-01-26T03:14:03.193Z,80.5
2019-01-26T03:15:03.335Z,80.7
2019-01-26T03:16:02.945Z,80
2019-01-26T03:17:06.719Z,80.7
2019-01-26T03:18:03.392Z,82.1
2019-01-26T03:19:03.402Z,81.4
2019-01-26T03:20:02.854Z,82.3
2019-01-26T03:21:03.346Z,82.3
2019-01-26T03:22:03.288Z,83
2019-01-26T03:23:03.834Z,83.5
2019-01-26T03:24:02.831Z,84.2
2019-01-26T03:25:03.393Z,84.4
2019-01-26T03:26:03.294Z,84.2
2019-01-26T03:27:03.084Z,84.2
2019-01-26T03:28:02.843Z,86.1
2019-01-26T03:29:03.295Z,86.1
2019-01-26T03:30:03.203Z,86.1
2019-01-26T03:31:03.846Z,85.1
2019-01-26T03:32:03.102Z,86.1
2019-01-26T03:33:03.075Z,87
2019-01-26T03:34:02.923Z,85.8
2019-01-26T03:35:03.311Z,85.8
2019-01-26T03:36:03.496Z,84.9
2019-01-26T03:37:03.646Z,83.3
2019-01-26T03:38:02.936Z,83.3
2019-01-26T03:39:03.390Z,82.3
2019-01-26T03:40:03.688Z,81.9
2019-01-26T03:41:03.003Z,82.8
2019-01-26T03:42:03.619Z,81.6
2019-01-26T03:43:03.527Z,82.3
2019-01-26T03:44:03.351Z,82.1
2019-01-26T03:45:04.214Z,81.9
2019-01-26T03:46:03.442Z,83.7
2019-01-26T03:47:03.585Z,83.7
2019-01-26T03:48:03.040Z,85.4
2019-01-26T03:49:03.789Z,84.4
2019-01-26T03:50:03.419Z,84.2
2019-01-26T03:51:02.821Z,84.2
2019-01-26T03:52:03.427Z,84
2019-01-26T03:53:02.896Z,84
2019-01-26T03:54:02.935Z,82.3
2019-01-26T03:55:03.093Z,83.7
2019-01-26T03:56:03.227Z,85.1
2019-01-26T03:57:03.056Z,84.7
2019-01-26T03:58:02.179Z,85.6
2019-01-26T03:59:03.564Z,87.2
2019-01-26T04:00:03.347Z,87.2
2019-01-26T04:01:03.851Z,88.2
2019-01-26T04:02:03.665Z,89.1
2019-01-26T04:03:02.949Z,90.5
2019-01-26T04:04:02.896Z,88.2
2019-01-26T04:05:03.472Z,88.6
2019-01-26T04:06:03.649Z,90.5
2019-01-26T04:07:03.662Z,89.6
2019-01-26T04:08:02.908Z,89.8
2019-01-26T04:09:03.493Z,90.7
2019-01-26T04:10:03.079Z,91.2
2019-01-26T04:11:03.570Z,91
2019-01-26T04:12:03.173Z,91.2
2019-01-26T04:13:02.798Z,91.7
2019-01-26T04:14:03.610Z,92.6
2019-01-26T04:15:03.147Z,92.6
2019-01-26T04:16:03.387Z,94
2019-01-26T04:17:03.678Z,93.5
2019-01-26T04:18:03.433Z,93.5
2019-01-26T04:19:03.515Z,92.8
2019-01-26T04:20:03.122Z,92.6
2019-01-26T04:21:02.818Z,92.6
2019-01-26T04:22:02.622Z,92.1
2019-01-26T04:23:02.272Z,92.1
2019-01-26T04:24:03.352Z,91.9
2019-01-26T04:25:03.316Z,91.9
2019-01-26T04:26:02.096Z,92.6
2019-01-26T04:27:03.051Z,92.6
2019-01-26T04:28:02.908Z,92.8
2019-01-26T04:29:02.995Z,89.8
2019-01-26T04:30:02.451Z,91
2019-01-26T04:31:03.742Z,90.7
2019-01-26T04:32:03.576Z,90.5
2019-01-26T04:33:02.976Z,89.6
2019-01-26T04:34:02.854Z,88.4
2019-01-26T04:35:03.131Z,89.3
2019-01-26T04:36:03.524Z,89.3
2019-01-26T04:37:03.643Z,92.1
2019-01-26T04:38:04.046Z,92.1
2019-01-26T04:39:02.776Z,92.6
2019-01-26T04:40:03.537Z,94.2
2019-01-26T04:41:03.612Z,94.2
2019-01-26T04:42:02.928Z,92.1
2019-01-26T04:43:03.446Z,92.8
2019-01-26T04:44:03.798Z,91
2019-01-26T04:45:03.215Z,91
2019-01-26T04:46:03.299Z,91.4
2019-01-26T04:47:03.008Z,90
2019-01-26T04:48:03.599Z,90.3
2019-01-26T04:49:02.498Z,90
2019-01-26T04:50:03.056Z,90
2019-01-26T04:51:03.757Z,90.5
2019-01-26T04:52:02.962Z,90.7
2019-01-26T04:53:03.726Z,92.4
2019-01-26T04:54:02.937Z,93.8
2019-01-26T04:55:03.635Z,92.6
2019-01-26T04:56:03.575Z,91.4
2019-01-26T04:57:03.709Z,93.1
2019-01-26T04:58:03.126Z,93.3
2019-01-26T04:59:02.909Z,91.9
2019-01-26T05:00:03.464Z,91.9
2019-01-26T05:01:03.522Z,93.3
2019-01-26T05:02:03.265Z,93.3
2019-01-26T05:03:03.100Z,93.5
2019-01-26T05:04:03.867Z,93.5
2019-01-26T05:05:03.641Z,92.8
2019-01-26T05:06:02.980Z,92.8
2019-01-26T05:07:03.628Z,91.2
2019-01-26T05:08:03.688Z,91.9
2019-01-26T05:09:03.547Z,88.4
2019-01-26T05:10:03.681Z,89.3
2019-01-26T05:11:03.348Z,89.1
2019-01-26T05:12:02.852Z,90.3
2019-01-26T05:13:03.260Z,90
2019-01-26T05:14:03.187Z,90
2019-01-26T05:15:03.092Z,88.6
2019-01-26T05:16:03.095Z,88.4
2019-01-26T05:17:02.907Z,89.1
2019-01-26T05:18:03.005Z,89.3
2019-01-26T05:19:03.291Z,88.9
2019-01-26T05:20:03.277Z,88.4
2019-01-26T05:21:03.519Z,87.2
2019-01-26T05:22:03.689Z,87
2019-01-26T05:23:03.477Z,85.8
2019-01-26T05:24:03.037Z,85.8
2019-01-26T05:25:02.902Z,83
2019-01-26T05:26:03.795Z,83
2019-01-26T05:27:03.266Z,83.3
2019-01-26T05:28:03.820Z,83.3
2019-01-26T05:29:02.998Z,83.5
2019-01-26T05:30:03.707Z,83.5
2019-01-26T05:31:03.519Z,83
2019-01-26T05:32:02.964Z,83.5
2019-01-26T05:33:03.458Z,81.9
2019-01-26T05:34:03.054Z,83
2019-01-26T05:35:02.620Z,82.1
2019-01-26T05:36:02.901Z,80.9
2019-01-26T05:37:03.063Z,80
2019-01-26T05:38:03.449Z,78.6
2019-01-26T05:39:03.349Z,79.1
2019-01-26T05:40:03.188Z,78.6
2019-01-26T05:41:02.994Z,78.8
2019-01-26T05:42:03.152Z,79.3
2019-01-26T05:43:03.655Z,78.4
2019-01-26T05:44:03.383Z,79.8
2019-01-26T05:45:03.815Z,80.9
2019-01-26T05:46:03.576Z,80.9
2019-01-26T05:47:03.128Z,81.9
2019-01-26T05:48:03.748Z,81.9
2019-01-26T05:49:03.829Z,83.7
2019-01-26T05:50:03.639Z,83.7
2019-01-26T05:51:03.678Z,85.1
2019-01-26T05:52:03.730Z,85.1
2019-01-26T05:53:03.755Z,83.5
2019-01-26T05:54:03.233Z,83.5
2019-01-26T05:55:03.260Z,82.6
2019-01-26T05:56:03.721Z,82.8
2019-01-26T05:57:02.969Z,81.2
2019-01-26T05:58:03.749Z,81.2
2019-01-26T05:59:03.301Z,82.1
2019-01-26T06:00:02.990Z,82.8
2019-01-26T06:01:03.830Z,80.9
2019-01-26T06:02:02.990Z,78.4
2019-01-26T06:03:03.397Z,78.4
2019-01-26T06:04:01.664Z,79.5
2019-01-26T06:05:02.652Z,79.5
2019-01-26T06:06:03.378Z,80.7
2019-01-26T06:07:03.196Z,81.2
2019-01-26T06:08:03.163Z,82.1
2019-01-26T06:09:02.986Z,82.8
2019-01-26T06:10:03.221Z,83
2019-01-26T06:11:03.721Z,83.7
2019-01-26T06:12:03.754Z,83
2019-01-26T06:13:03.512Z,82.6
2019-01-26T06:14:03.828Z,82.8
2019-01-26T06:15:03.378Z,83.3
2019-01-26T06:16:03.057Z,83.3
2019-01-26T06:17:03.738Z,83.7
2019-01-26T06:18:03.497Z,83.7
2019-01-26T06:19:03.465Z,84.7
2019-01-26T06:20:03.254Z,85.4
2019-01-26T06:21:03.401Z,85.4
2019-01-26T06:22:03.508Z,85.4
2019-01-26T06:23:03.089Z,87.2
2019-01-26T06:24:02.995Z,87.7
2019-01-26T06:25:03.708Z,88.2
2019-01-26T06:26:03.724Z,89.6
2019-01-26T06:27:03.602Z,90.7
2019-01-26T06:28:03.236Z,91.7
2019-01-26T06:29:02.875Z,91.4
2019-01-26T06:30:03.698Z,90.7
2019-01-26T06:31:02.339Z,92.1
2019-01-26T06:32:03.260Z,92.1
2019-01-26T06:33:03.384Z,91.9
2019-01-26T06:34:03.933Z,91.9
2019-01-26T06:35:02.856Z,92.1
2019-01-26T06:36:03.968Z,93.3
2019-01-26T06:37:03.542Z,93.5
2019-01-26T06:38:03.691Z,94.5
2019-01-26T06:39:03.626Z,95.2
2019-01-26T06:40:03.058Z,95.2
2019-01-26T06:41:03.626Z,95.6
2019-01-26T06:42:02.664Z,95.9
2019-01-26T06:43:02.964Z,96.8
2019-01-26T06:44:03.368Z,97
2019-01-26T06:45:03.085Z,96.8
2019-01-26T06:46:02.597Z,96.6
2019-01-26T06:47:03.427Z,96.6
2019-01-26T06:48:03.148Z,96.3
2019-01-26T06:49:03.317Z,94.2
2019-01-26T06:50:02.954Z,92.6
2019-01-26T06:51:03.254Z,93.3
2019-01-26T06:52:03.836Z,94.2
2019-01-26T06:53:03.241Z,94.7
2019-01-26T06:54:03.772Z,96.8
2019-01-26T06:55:03.130Z,97
2019-01-26T06:56:03.054Z,99.1
2019-01-26T06:57:03.491Z,99.1
2019-01-26T06:58:03.159Z,101.5
2019-01-26T06:59:03.029Z,101.5
2019-01-26T07:00:03.698Z,101
2019-01-26T07:01:03.101Z,101
2019-01-26T07:02:03.756Z,102.9
2019-01-26T07:03:03.268Z,102.9
2019-01-26T07:04:03.529Z,103.6
2019-01-26T07:05:03.843Z,103.6
2019-01-26T07:06:03.856Z,102.9
2019-01-26T07:07:02.918Z,103.3
2019-01-26T07:08:03.427Z,103.3
2019-01-26T07:09:03.273Z,104
2019-01-26T07:10:02.327Z,104
2019-01-26T07:11:03.378Z,104
2019-01-26T07:12:03.325Z,103.3
2019-01-26T07:13:03.098Z,104.3
2019-01-26T07:14:02.879Z,103.6
2019-01-26T07:15:03.410Z,103.6
2019-01-26T07:16:03.165Z,101.9
2019-01-26T07:17:03.912Z,101
2019-01-26T07:18:10.039Z,100.1
2019-01-26T07:19:02.901Z,99.6
2019-01-26T07:20:03.287Z,99.4
2019-01-26T07:21:03.779Z,100.1
2019-01-26T07:22:03.236Z,100.3
2019-01-26T07:23:03.475Z,99.4
2019-01-26T07:24:03.118Z,99.4
2019-01-26T07:25:03.330Z,99.4
2019-01-26T07:26:03.308Z,98
2019-01-26T07:27:02.978Z,98
2019-01-26T07:28:03.231Z,95.2
2019-01-26T07:29:02.729Z,95.2
2019-01-26T07:30:03.407Z,94.5
2019-01-26T07:31:03.588Z,95.2
2019-01-26T07:32:03.169Z,94.5
2019-01-26T07:33:01.945Z,95.2
2019-01-26T07:34:02.094Z,94.7
2019-01-26T07:35:03.422Z,94.7
2019-01-26T07:36:03.360Z,95.9
2019-01-26T07:37:03.535Z,95.6
2019-01-26T07:38:03.641Z,95.2
2019-01-26T07:39:03.350Z,93.3
2019-01-26T07:40:03.703Z,93.1
2019-01-26T07:41:03.167Z,93.3
2019-01-26T07:42:02.899Z,93.5
2019-01-26T07:43:03.744Z,93.5
2019-01-26T07:44:02.809Z,93.1
2019-01-26T07:45:03.632Z,93.1
2019-01-26T07:46:03.501Z,93.1
2019-01-26T07:47:02.963Z,90.7
2019-01-26T07:48:02.859Z,90.3
2019-01-26T07:49:03.613Z,90.3
2019-01-26T07:50:03.660Z,90.7
2019-01-26T07:51:03.527Z,90.7
2019-01-26T07:52:03.177Z,89.1
2019-01-26T07:53:03.654Z,89.1
2019-01-26T07:54:02.719Z,91
2019-01-26T07:55:03.264Z,87.2
2019-01-26T07:56:03.249Z,85.1
2019-01-26T07:57:03.645Z,85.1
2019-01-26T07:58:02.069Z,81.9
2019-01-26T07:59:01.806Z,81.6
2019-01-26T08:00:02.967Z,80.9
2019-01-26T08:01:03.708Z,80.9
2019-01-26T08:02:02.998Z,80.9
2019-01-26T08:03:03.402Z,80.9
2019-01-26T08:04:03.032Z,81.9
2019-01-26T08:05:02.825Z,81.2
2019-01-26T08:06:02.909Z,80.5
2019-01-26T08:07:03.097Z,80.5
2019-01-26T08:08:03.728Z,78.1
2019-01-26T08:09:03.438Z,78.1
2019-01-26T08:10:03.473Z,77.9
2019-01-26T08:11:03.478Z,77.9
2019-01-26T08:12:03.453Z,78.8
2019-01-26T08:13:03.082Z,78.8
2019-01-26T08:14:03.408Z,78.6
2019-01-26T08:15:03.291Z,78.6
2019-01-26T08:16:03.663Z,80.7
2019-01-26T08:17:03.402Z,80.7
2019-01-26T08:18:03.221Z,80
2019-01-26T08:19:02.779Z,81.2
2019-01-26T08:20:03.291Z,81.2
2019-01-26T08:21:03.769Z,81.4
2019-01-26T08:22:02.489Z,80.7
2019-01-26T08:23:03.961Z,82.3
2019-01-26T08:24:03.084Z,82.8
2019-01-26T08:25:03.042Z,83.3
2019-01-26T08:26:02.707Z,85.1
2019-01-26T08:27:02.853Z,86.1
2019-01-26T08:28:02.764Z,87.2
2019-01-26T08:29:03.147Z,88.2
2019-01-26T08:30:03.489Z,87.2
2019-01-26T08:31:03.007Z,87.2
2019-01-26T08:32:02.772Z,86.5
2019-01-26T08:33:03.624Z,86.5
2019-01-26T08:34:03.903Z,86.3
2019-01-26T08:35:03.075Z,86.8
2019-01-26T08:36:02.784Z,86.3
2019-01-26T08:37:03.355Z,86.3
2019-01-26T08:38:03.472Z,85.8
2019-01-26T08:39:03.159Z,84.9
2019-01-26T08:40:03.251Z,84.7
2019-01-26T08:41:04.071Z,84.7
2019-01-26T08:42:03.126Z,82.1
2019-01-26T08:43:03.038Z,80.9
2019-01-26T08:44:03.584Z,81.6
2019-01-26T08:45:02.291Z,81.4
2019-01-26T08:46:03.787Z,81.4
2019-01-26T08:47:03.054Z,81.6
2019-01-26T08:48:03.080Z,81.4
2019-01-26T08:49:03.660Z,82.1
2019-01-26T08:50:03.324Z,82.6
2019-01-26T08:51:03.399Z,83.5
2019-01-26T08:52:03.420Z,84.2
2019-01-26T08:53:03.800Z,86.1
2019-01-26T08:54:03.405Z,85.6
2019-01-26T08:55:03.113Z,85.6
2019-01-26T08:56:02.890Z,87.5
2019-01-26T08:57:02.938Z,87.5
2019-01-26T08:58:03.126Z,88.6
2019-01-26T08:59:03.641Z,88.6
2019-01-26T09:00:03.600Z,88.2
2019-01-26T09:01:03.231Z,88.2
2019-01-26T09:02:03.554Z,87.5
2019-01-26T09:03:03.107Z,86.8
2019-01-26T09:04:02.923Z,85.4
2019-01-26T09:05:03.268Z,85.4
2019-01-26T09:06:03.490Z,87.2
2019-01-26T09:07:03.800Z,88.9
2019-01-26T09:08:02.967Z,89.1
2019-01-26T09:09:03.610Z,89.1
2019-01-26T09:10:03.125Z,87.9
2019-01-26T09:11:03.795Z,87.7
2019-01-26T09:12:02.447Z,86.1
2019-01-26T09:13:03.623Z,85.4
2019-01-26T09:14:02.501Z,85.1
2019-01-26T09:15:03.535Z,86.3
2019-01-26T09:16:03.754Z,86.5
2019-01-26T09:17:03.645Z,86.8
2019-01-26T09:18:02.961Z,87
2019-01-26T09:19:03.359Z,87
2019-01-26T09:20:03.280Z,86.3
2019-01-26T09:21:03.155Z,86.3
2019-01-26T09:22:02.887Z,86.5
2019-01-26T09:23:03.311Z,87
2019-01-26T09:24:02.911Z,87
2019-01-26T09:25:03.168Z,85.6
2019-01-26T09:26:03.501Z,85.8
2019-01-26T09:27:03.084Z,84.2
2019-01-26T09:28:03.433Z,83
2019-01-26T09:29:03.362Z,83
2019-01-26T09:30:03.481Z,83
2019-01-26T09:31:03.049Z,83.5
2019-01-26T09:32:02.398Z,83.7
2019-01-26T09:33:03.675Z,83.7
2019-01-26T09:34:03.168Z,85.6
2019-01-26T09:35:02.325Z,84.2
2019-01-26T09:36:01.970Z,83.5
2019-01-26T09:37:02.643Z,85.1
2019-01-26T09:38:02.913Z,84.7
2019-01-26T09:39:03.189Z,84.9
2019-01-26T09:40:03.285Z,84.9
2019-01-26T09:41:02.860Z,85.4
2019-01-26T09:42:03.139Z,86.5
2019-01-26T09:43:03.635Z,86.5
2019-01-26T09:44:03.131Z,85.8
2019-01-26T09:45:03.064Z,85.8
2019-01-26T09:46:03.355Z,87
2019-01-26T09:47:03.436Z,87
2019-01-26T09:48:03.706Z,87.9
2019-01-26T09:49:03.380Z,88.9
2019-01-26T09:50:03.282Z,89.3
2019-01-26T09:51:03.895Z,87
2019-01-26T09:52:03.288Z,87.7
2019-01-26T09:53:03.214Z,87.7
2019-01-26T09:54:03.422Z,86.3
2019-01-26T09:55:02.541Z,85.1
2019-01-26T09:56:03.119Z,85.6
2019-01-26T09:57:03.257Z,85.6
2019-01-26T09:58:03.822Z,86.8
2019-01-26T09:59:03.252Z,86.8
2019-01-26T10:00:03.375Z,87.2
2019-01-26T10:01:03.297Z,87.2
2019-01-26T10:02:03.211Z,87.5
2019-01-26T10:03:03.438Z,87.5
2019-01-26T10:04:03.047Z,87.5
2019-01-26T10:05:03.550Z,87.5
2019-01-26T10:06:03.810Z,84.9
2019-01-26T10:07:02.838Z,84.4
2019-01-26T10:08:02.322Z,84.4
2019-01-26T10:09:02.970Z,85.6
2019-01-26T10:10:03.319Z,86.3
2019-01-26T10:11:03.740Z,87.7
2019-01-26T10:12:02.289Z,88.2
2019-01-26T10:13:03.369Z,88.2
2019-01-26T10:14:03.217Z,87.5
2019-01-26T10:15:03.046Z,87.7
2019-01-26T10:16:03.568Z,87.5
2019-01-26T10:17:03.386Z,86.8
2019-01-26T10:18:03.080Z,86.8
2019-01-26T10:19:03.763Z,87
2019-01-26T10:20:03.540Z,87
2019-01-26T10:21:03.618Z,87
2019-01-26T10:22:03.416Z,84.7
2019-01-26T10:23:03.245Z,86.1
2019-01-26T10:24:03.385Z,86.1
2019-01-26T10:25:03.124Z,86.3
2019-01-26T10:26:03.613Z,86.5
2019-01-26T10:27:03.469Z,87
2019-01-26T10:28:03.060Z,87
2019-01-26T10:29:03.579Z,87.5
2019-01-26T10:30:02.846Z,88.6
2019-01-26T10:31:03.206Z,89.6
2019-01-26T10:32:03.766Z,89.3
2019-01-26T10:33:03.672Z,91
2019-01-26T10:34:03.699Z,89.8
2019-01-26T10:35:03.567Z,90
2019-01-26T10:36:02.788Z,90
2019-01-26T10:37:02.991Z,90.3
2019-01-26T10:38:03.290Z,91.9
2019-01-26T10:39:03.672Z,92.4
2019-01-26T10:40:03.124Z,92.4
2019-01-26T10:41:02.898Z,91.4
2019-01-26T10:42:03.413Z,91.4
2019-01-26T10:43:03.195Z,92.1
2019-01-26T10:44:03.907Z,91.9
2019-01-26T10:45:02.827Z,91.9
2019-01-26T10:46:03.872Z,91.9
2019-01-26T10:47:02.994Z,90.5
2019-01-26T10:48:02.984Z,90.5
2019-01-26T10:49:03.191Z,91.2
2019-01-26T10:50:03.460Z,88.4
2019-01-26T10:51:02.792Z,87.9
2019-01-26T10:52:02.726Z,88.6
2019-01-26T10:53:02.331Z,88.6
2019-01-26T10:54:02.556Z,88.6
2019-01-26T10:55:02.605Z,88.6
2019-01-26T10:56:03.256Z,89.3
2019-01-26T10:57:02.769Z,88.4
2019-01-26T10:58:03.223Z,87.9
2019-01-26T10:59:02.898Z,87.5
2019-01-26T11:00:03.738Z,87.9
2019-01-26T11:01:03.495Z,87.9
2019-01-26T11:02:03.597Z,90.5
2019-01-26T11:03:03.243Z,90.5
2019-01-26T11:04:02.913Z,92.1
2019-01-26T11:05:03.421Z,91.9
2019-01-26T11:06:03.139Z,91.9
2019-01-26T11:07:03.614Z,92.8
2019-01-26T11:08:03.040Z,92.8
2019-01-26T11:09:03.116Z,94
2019-01-26T11:10:03.324Z,94
2019-01-26T11:11:03.086Z,92.4
2019-01-26T11:12:03.054Z,92.4
2019-01-26T11:13:03.175Z,93.1
2019-01-26T11:14:03.496Z,91
2019-01-26T11:15:02.936Z,92.8
2019-01-26T11:16:02.834Z,92.8
2019-01-26T11:17:03.437Z,92.4
2019-01-26T11:18:03.429Z,94.5
2019-01-26T11:19:08.315Z,94.2
2019-01-26T11:20:03.772Z,94.2
2019-01-26T11:21:03.237Z,93.8
2019-01-26T11:22:03.000Z,92.8
2019-01-26T11:23:03.196Z,93.3
2019-01-26T11:24:02.128Z,93.5
2019-01-26T11:25:02.579Z,93.1
2019-01-26T11:26:03.660Z,94.2
2019-01-26T11:27:03.397Z,93.5
2019-01-26T11:28:03.558Z,93.8
2019-01-26T11:29:03.408Z,93.8
2019-01-26T11:30:03.111Z,93.8
2019-01-26T11:31:03.457Z,93.3
2019-01-26T11:32:03.533Z,93.3
2019-01-26T11:33:02.818Z,91.7
2019-01-26T11:34:02.847Z,91.7
2019-01-26T11:35:02.910Z,90.5
2019-01-26T11:36:03.560Z,90.5
2019-01-26T11:37:03.569Z,91.2
2019-01-26T11:38:03.205Z,89.1
2019-01-26T11:39:03.512Z,88.4
2019-01-26T11:40:03.675Z,88.4
2019-01-26T11:41:03.419Z,88.4
2019-01-26T11:42:03.451Z,89.3
2019-01-26T11:43:03.679Z,88.2
2019-01-26T11:44:03.455Z,90.5
2019-01-26T11:45:03.595Z,89.8
2019-01-26T11:46:02.978Z,90.3
2019-01-26T11:47:03.122Z,89.6
2019-01-26T11:48:03.480Z,89.6
2019-01-26T11:49:02.221Z,90.5
2019-01-26T11:50:03.403Z,90.3
2019-01-26T11:51:03.281Z,90.5
2019-01-26T11:52:03.037Z,90
2019-01-26T11:53:03.155Z,91
2019-01-26T11:54:03.006Z,89.6
2019-01-26T11:55:02.931Z,89.1
2019-01-26T11:56:03.205Z,88.2
2019-01-26T11:57:02.858Z,89.1
2019-01-26T11:58:03.169Z,89.1
2019-01-26T11:59:03.238Z,89.8
2019-01-26T12:00:03.643Z,89.8
2019-01-26T12:01:03.484Z,90
2019-01-26T12:02:03.422Z,87.5
2019-01-26T12:03:03.986Z,86.8
2019-01-26T12:04:03.201Z,86.8
2019-01-26T12:05:03.171Z,86.8
2019-01-26T12:06:03.736Z,86.3
2019-01-26T12:07:03.300Z,85.6
2019-01-26T12:08:03.263Z,85.6
2019-01-26T12:09:03.114Z,85.1
2019-01-26T12:10:03.650Z,82.6
2019-01-26T12:11:03.793Z,82.6
2019-01-26T12:12:03.106Z,82.8
2019-01-26T12:13:03.781Z,83
2019-01-26T12:14:01.918Z,84.7
2019-01-26T12:15:03.020Z,83.3
2019-01-26T12:16:03.719Z,83.3
2019-01-26T12:17:03.569Z,81.9
2019-01-26T12:18:02.898Z,81.9
2019-01-26T12:19:03.285Z,81.6
2019-01-26T12:20:03.235Z,81.6
2019-01-26T12:21:03.896Z,82.1
2019-01-26T12:22:03.445Z,82.1
2019-01-26T12:23:03.703Z,81.9
2019-01-26T12:24:03.324Z,81.9
2019-01-26T12:25:03.780Z,82.3
2019-01-26T12:26:03.080Z,82.3
2019-01-26T12:27:03.561Z,82.1
2019-01-26T12:28:02.956Z,82.1
2019-01-26T12:29:03.034Z,81.9
2019-01-26T12:30:02.952Z,81.9
2019-01-26T12:31:03.099Z,81.4
2019-01-26T12:32:03.890Z,82.1
2019-01-26T12:33:02.515Z,83.5
2019-01-26T12:34:02.157Z,83.7
2019-01-26T12:35:03.437Z,84
2019-01-26T12:36:02.035Z,85.1
2019-01-26T12:37:02.092Z,84.4
2019-01-26T12:38:03.546Z,84.4
2019-01-26T12:39:03.231Z,84.2
2019-01-26T12:40:03.597Z,83
2019-01-26T12:41:03.663Z,82.8
2019-01-26T12:42:03.691Z,82.1
2019-01-26T12:43:03.623Z,82.1
2019-01-26T12:44:03.061Z,84.7
2019-01-26T12:45:04.142Z,84
2019-01-26T12:46:03.764Z,84
2019-01-26T12:47:02.904Z,84
2019-01-26T12:48:03.279Z,84.7
2019-01-26T12:49:03.663Z,85.8
2019-01-26T12:50:03.363Z,86.8
2019-01-26T12:51:02.920Z,86.8
2019-01-26T12:52:03.498Z,85.6
2019-01-26T12:53:03.334Z,86.8
2019-01-26T12:54:03.073Z,87.7
2019-01-26T12:55:03.200Z,89.6
2019-01-26T12:56:03.127Z,89.8
2019-01-26T12:57:02.869Z,89.6
2019-01-26T12:58:03.855Z,89.6
2019-01-26T12:59:02.837Z,89.3
2019-01-26T13:00:03.761Z,89.3
2019-01-26T13:01:03.073Z,88.2
2019-01-26T13:02:03.678Z,89.8
2019-01-26T13:03:03.824Z,90
2019-01-26T13:04:03.423Z,90
2019-01-26T13:05:03.290Z,89.8
2019-01-26T13:06:02.995Z,90.3
2019-01-26T13:07:03.466Z,90.3
2019-01-26T13:08:02.710Z,91.7
2019-01-26T13:09:03.151Z,91.7
2019-01-26T13:10:02.952Z,91.7
2019-01-26T13:11:03.527Z,91.9
2019-01-26T13:12:03.123Z,92.6
2019-01-26T13:13:03.572Z,93.1
2019-01-26T13:14:03.258Z,93.1
2019-01-26T13:15:03.592Z,92.4
2019-01-26T13:16:03.067Z,92.8
2019-01-26T13:17:03.368Z,94.7
2019-01-26T13:18:03.272Z,95.4
2019-01-26T13:19:03.363Z,94.7
2019-01-26T13:20:02.080Z,94.2
2019-01-26T13:21:02.204Z,94.7
2019-01-26T13:22:02.140Z,95.2
2019-01-26T13:23:03.504Z,94.5